sensor_id;sensor_type;location;lat;lon;timestamp;temperature;humidity
15450;DHT22;7826;49.784;9.934;2022-11-12T00:00:33;5.30;1.00
15450;DHT22;7826;49.784;9.934;2022-11-12T00:02:59;5.30;1.00
15450;DHT22;7826;49.784;9.934;2022-11-12T00:05:26;5.30;1.00
15450;DHT22;7826;49.784;9.934;2022-11-12T00:07:52;5.30;1.00
15450;DHT22;7826;49.784;9.934;2022-11-12T00:10:19;5.20;1.00
15450;DHT22;7826;49.784;9.934;2022-11-12T00:12:45;5.20;1.00
15450;DHT22;7826;49.784;9.934;2022-11-12T00:15:11;5.20;1.00
15450;DHT22;7826;49.784;9.934;2022-11-12T00:17:38;5.20;1.00
15450;DHT22;7826;49.784;9.934;2022-11-12T00:20:06;5.30;24.10
15450;DHT22;7826;49.784;9.934;2022-11-12T00:22:33;5.20;1.00
15450;DHT22;7826;49.784;9.934;2022-11-12T00:24:59;5.30;6.40
15450;DHT22;7826;49.784;9.934;2022-11-12T00:27:25;5.20;13.10
15450;DHT22;7826;49.784;9.934;2022-11-12T00:29:52;5.20;20.00
15450;DHT22;7826;49.784;9.934;2022-11-12T00:32:18;5.20;67.90
15450;DHT22;7826;49.784;9.934;2022-11-12T00:34:45;5.20;67.90
15450;DHT22;7826;49.784;9.934;2022-11-12T00:37:11;5.10;71.50
15450;DHT22;7826;49.784;9.934;2022-11-12T00:39:37;5.20;99.90
15450;DHT22;7826;49.784;9.934;2022-11-12T00:42:04;5.20;94.00
15450;DHT22;7826;49.784;9.934;2022-11-12T00:44:30;5.20;95.30
15450;DHT22;7826;49.784;9.934;2022-11-12T00:46:56;5.10;99.90
15450;DHT22;7826;49.784;9.934;2022-11-12T00:49:23;5.10;99.90
15450;DHT22;7826;49.784;9.934;2022-11-12T00:51:51;5.10;94.00
15450;DHT22;7826;49.784;9.934;2022-11-12T00:54:17;5.10;99.90
15450;DHT22;7826;49.784;9.934;2022-11-12T00:56:45;5.00;54.30
15450;DHT22;7826;49.784;9.934;2022-11-12T00:59:12;5.00;80.00
15450;DHT22;7826;49.784;9.934;2022-11-12T01:01:39;5.00;64.20
15450;DHT22;7826;49.784;9.934;2022-11-12T01:04:06;5.00;93.90
15450;DHT22;7826;49.784;9.934;2022-11-12T01:06:32;5.00;78.30
15450;DHT22;7826;49.784;9.934;2022-11-12T01:08:59;4.90;95.70
15450;DHT22;7826;49.784;9.934;2022-11-12T01:11:28;4.90;99.90
15450;DHT22;7826;49.784;9.934;2022-11-12T01:14:06;4.80;81.30
15450;DHT22;7826;49.784;9.934;2022-11-12T01:16:38;4.80;99.90
15450;DHT22;7826;49.784;9.934;2022-11-12T01:19:07;4.80;99.90
15450;DHT22;7826;49.784;9.934;2022-11-12T01:21:37;4.80;99.90
15450;DHT22;7826;49.784;9.934;2022-11-12T01:24:05;4.80;99.90
15450;DHT22;7826;49.784;9.934;2022-11-12T01:26:31;4.80;99.90
15450;DHT22;7826;49.784;9.934;2022-11-12T01:28:57;4.80;99.90
15450;DHT22;7826;49.784;9.934;2022-11-12T01:31:26;4.80;99.90
15450;DHT22;7826;49.784;9.934;2022-11-12T01:33:56;4.80;99.90
15450;DHT22;7826;49.784;9.934;2022-11-12T01:36:24;4.80;99.90
15450;DHT22;7826;49.784;9.934;2022-11-12T01:38:51;4.80;99.90
15450;DHT22;7826;49.784;9.934;2022-11-12T01:41:23;4.90;99.90
15450;DHT22;7826;49.784;9.934;2022-11-12T01:44:07;4.80;99.90
15450;DHT22;7826;49.784;9.934;2022-11-12T01:46:39;4.80;99.90
15450;DHT22;7826;49.784;9.934;2022-11-12T01:49:11;4.80;99.90
15450;DHT22;7826;49.784;9.934;2022-11-12T01:51:43;4.80;99.90
15450;DHT22;7826;49.784;9.934;2022-11-12T01:54:13;4.70;99.90
15450;DHT22;7826;49.784;9.934;2022-11-12T01:56:41;4.70;99.90
15450;DHT22;7826;49.784;9.934;2022-11-12T01:59:12;4.70;99.90
15450;DHT22;7826;49.784;9.934;2022-11-12T02:01:39;4.80;99.90
15450;DHT22;7826;49.784;9.934;2022-11-12T02:04:06;4.70;99.90
15450;DHT22;7826;49.784;9.934;2022-11-12T02:06:33;4.70;99.90
15450;DHT22;7826;49.784;9.934;2022-11-12T02:09:01;4.80;99.90
15450;DHT22;7826;49.784;9.934;2022-11-12T02:11:27;4.80;99.90
15450;DHT22;7826;49.784;9.934;2022-11-12T02:13:54;4.80;99.90
15450;DHT22;7826;49.784;9.934;2022-11-12T02:16:38;4.80;99.90
15450;DHT22;7826;49.784;9.934;2022-11-12T02:19:07;4.80;99.90
15450;DHT22;7826;49.784;9.934;2022-11-12T02:21:34;4.70;99.90
15450;DHT22;7826;49.784;9.934;2022-11-12T02:24:02;4.70;99.90
15450;DHT22;7826;49.784;9.934;2022-11-12T02:26:32;4.70;99.90
15450;DHT22;7826;49.784;9.934;2022-11-12T02:28:59;4.70;99.90
15450;DHT22;7826;49.784;9.934;2022-11-12T02:31:26;4.70;99.90
15450;DHT22;7826;49.784;9.934;2022-11-12T02:33:52;4.70;99.90
15450;DHT22;7826;49.784;9.934;2022-11-12T02:36:19;4.70;99.90
15450;DHT22;7826;49.784;9.934;2022-11-12T02:38:45;4.70;99.90
15450;DHT22;7826;49.784;9.934;2022-11-12T02:41:12;4.80;99.90
15450;DHT22;7826;49.784;9.934;2022-11-12T02:43:39;4.70;99.90
15450;DHT22;7826;49.784;9.934;2022-11-12T02:46:06;4.70;99.90
15450;DHT22;7826;49.784;9.934;2022-11-12T02:48:32;4.70;99.90
15450;DHT22;7826;49.784;9.934;2022-11-12T02:50:59;4.70;99.90
15450;DHT22;7826;49.784;9.934;2022-11-12T02:53:25;4.70;99.90
15450;DHT22;7826;49.784;9.934;2022-11-12T02:55:52;4.60;99.90
15450;DHT22;7826;49.784;9.934;2022-11-12T02:58:18;4.70;99.90
15450;DHT22;7826;49.784;9.934;2022-11-12T03:00:47;4.70;99.90
15450;DHT22;7826;49.784;9.934;2022-11-12T03:03:14;4.70;99.90
15450;DHT22;7826;49.784;9.934;2022-11-12T03:05:40;4.60;99.90
15450;DHT22;7826;49.784;9.934;2022-11-12T03:08:07;4.60;99.90
15450;DHT22;7826;49.784;9.934;2022-11-12T03:10:37;4.60;99.90
15450;DHT22;7826;49.784;9.934;2022-11-12T03:13:04;4.60;99.90
15450;DHT22;7826;49.784;9.934;2022-11-12T03:15:31;4.60;99.90
15450;DHT22;7826;49.784;9.934;2022-11-12T03:17:58;4.60;99.90
15450;DHT22;7826;49.784;9.934;2022-11-12T03:20:26;4.60;99.90
15450;DHT22;7826;49.784;9.934;2022-11-12T03:23:04;4.60;99.90
15450;DHT22;7826;49.784;9.934;2022-11-12T03:25:31;4.60;99.90
15450;DHT22;7826;49.784;9.934;2022-11-12T03:28:03;4.70;99.90
15450;DHT22;7826;49.784;9.934;2022-11-12T03:30:32;4.70;99.90
15450;DHT22;7826;49.784;9.934;2022-11-12T03:33:05;4.70;99.90
15450;DHT22;7826;49.784;9.934;2022-11-12T03:35:32;4.70;99.90
15450;DHT22;7826;49.784;9.934;2022-11-12T03:38:00;4.70;99.90
15450;DHT22;7826;49.784;9.934;2022-11-12T03:40:27;4.80;99.90
15450;DHT22;7826;49.784;9.934;2022-11-12T03:42:54;4.80;99.90
15450;DHT22;7826;49.784;9.934;2022-11-12T03:45:23;4.80;99.90
15450;DHT22;7826;49.784;9.934;2022-11-12T03:47:52;4.80;99.90
15450;DHT22;7826;49.784;9.934;2022-11-12T03:50:20;4.80;99.90
15450;DHT22;7826;49.784;9.934;2022-11-12T03:52:50;4.90;99.90
15450;DHT22;7826;49.784;9.934;2022-11-12T03:55:18;4.80;99.90
15450;DHT22;7826;49.784;9.934;2022-11-12T03:57:47;4.80;99.90
15450;DHT22;7826;49.784;9.934;2022-11-12T04:00:14;4.90;99.90
15450;DHT22;7826;49.784;9.934;2022-11-12T04:02:41;4.90;99.90
15450;DHT22;7826;49.784;9.934;2022-11-12T04:05:07;4.80;99.90
15450;DHT22;7826;49.784;9.934;2022-11-12T04:08:05;4.80;99.90
15450;DHT22;7826;49.784;9.934;2022-11-12T04:10:50;4.80;99.90
15450;DHT22;7826;49.784;9.934;2022-11-12T04:13:17;4.80;99.90
15450;DHT22;7826;49.784;9.934;2022-11-12T04:16:10;4.90;99.90
15450;DHT22;7826;49.784;9.934;2022-11-12T04:18:58;4.80;99.90
15450;DHT22;7826;49.784;9.934;2022-11-12T04:21:55;4.80;99.90
15450;DHT22;7826;49.784;9.934;2022-11-12T04:24:25;4.70;99.90
15450;DHT22;7826;49.784;9.934;2022-11-12T04:27:22;4.70;99.90
15450;DHT22;7826;49.784;9.934;2022-11-12T04:29:49;4.70;99.90
15450;DHT22;7826;49.784;9.934;2022-11-12T04:32:46;4.80;99.90
15450;DHT22;7826;49.784;9.934;2022-11-12T04:35:12;4.80;99.90
15450;DHT22;7826;49.784;9.934;2022-11-12T04:37:39;4.80;99.90
15450;DHT22;7826;49.784;9.934;2022-11-12T04:42:57;4.70;99.90
15450;DHT22;7826;49.784;9.934;2022-11-12T04:45:43;4.70;99.90
15450;DHT22;7826;49.784;9.934;2022-11-12T04:48:10;4.70;99.90
15450;DHT22;7826;49.784;9.934;2022-11-12T04:50:36;4.80;99.90
15450;DHT22;7826;49.784;9.934;2022-11-12T04:53:02;4.80;99.90
15450;DHT22;7826;49.784;9.934;2022-11-12T04:55:29;4.70;99.90
15450;DHT22;7826;49.784;9.934;2022-11-12T04:57:56;4.60;99.90
15450;DHT22;7826;49.784;9.934;2022-11-12T05:00:23;4.60;99.90
15450;DHT22;7826;49.784;9.934;2022-11-12T05:02:49;4.60;99.90
15450;DHT22;7826;49.784;9.934;2022-11-12T05:05:16;4.60;99.90
15450;DHT22;7826;49.784;9.934;2022-11-12T05:07:42;4.70;99.90
15450;DHT22;7826;49.784;9.934;2022-11-12T05:10:09;4.60;99.90
15450;DHT22;7826;49.784;9.934;2022-11-12T05:12:36;4.60;99.90
15450;DHT22;7826;49.784;9.934;2022-11-12T05:15:03;4.60;99.90
15450;DHT22;7826;49.784;9.934;2022-11-12T05:17:29;4.60;99.90
15450;DHT22;7826;49.784;9.934;2022-11-12T05:19:55;4.60;99.90
15450;DHT22;7826;49.784;9.934;2022-11-12T05:22:22;4.60;99.90
15450;DHT22;7826;49.784;9.934;2022-11-12T05:24:48;4.60;99.90
15450;DHT22;7826;49.784;9.934;2022-11-12T05:27:17;4.60;99.90
15450;DHT22;7826;49.784;9.934;2022-11-12T05:29:44;4.60;99.90
15450;DHT22;7826;49.784;9.934;2022-11-12T05:32:12;4.60;99.90
15450;DHT22;7826;49.784;9.934;2022-11-12T05:34:39;4.60;99.90
15450;DHT22;7826;49.784;9.934;2022-11-12T05:37:07;4.50;99.90
15450;DHT22;7826;49.784;9.934;2022-11-12T05:39:34;4.50;99.90
15450;DHT22;7826;49.784;9.934;2022-11-12T05:42:00;4.50;99.90
15450;DHT22;7826;49.784;9.934;2022-11-12T05:44:27;4.40;99.90
15450;DHT22;7826;49.784;9.934;2022-11-12T05:46:53;4.50;99.90
15450;DHT22;7826;49.784;9.934;2022-11-12T05:49:20;4.50;99.90
15450;DHT22;7826;49.784;9.934;2022-11-12T05:51:46;4.50;99.90
15450;DHT22;7826;49.784;9.934;2022-11-12T05:54:12;4.50;99.90
15450;DHT22;7826;49.784;9.934;2022-11-12T05:56:39;4.50;99.90
15450;DHT22;7826;49.784;9.934;2022-11-12T05:59:08;4.50;99.90
15450;DHT22;7826;49.784;9.934;2022-11-12T06:01:34;4.50;99.90
15450;DHT22;7826;49.784;9.934;2022-11-12T06:04:13;4.50;99.90
15450;DHT22;7826;49.784;9.934;2022-11-12T06:06:40;4.50;99.90
15450;DHT22;7826;49.784;9.934;2022-11-12T06:09:07;4.50;99.90
15450;DHT22;7826;49.784;9.934;2022-11-12T06:11:34;4.50;99.90
15450;DHT22;7826;49.784;9.934;2022-11-12T06:14:01;4.50;99.90
15450;DHT22;7826;49.784;9.934;2022-11-12T06:16:28;4.50;99.90
15450;DHT22;7826;49.784;9.934;2022-11-12T06:18:54;4.40;99.90
15450;DHT22;7826;49.784;9.934;2022-11-12T06:21:21;4.50;99.90
15450;DHT22;7826;49.784;9.934;2022-11-12T06:23:50;4.40;99.90
15450;DHT22;7826;49.784;9.934;2022-11-12T06:26:18;4.40;99.90
15450;DHT22;7826;49.784;9.934;2022-11-12T06:28:46;4.40;99.90
15450;DHT22;7826;49.784;9.934;2022-11-12T06:31:13;4.30;99.90
15450;DHT22;7826;49.784;9.934;2022-11-12T06:33:39;4.40;99.90
15450;DHT22;7826;49.784;9.934;2022-11-12T06:36:06;4.40;99.90
15450;DHT22;7826;49.784;9.934;2022-11-12T06:38:35;4.40;99.90
15450;DHT22;7826;49.784;9.934;2022-11-12T06:41:02;4.40;99.90
15450;DHT22;7826;49.784;9.934;2022-11-12T06:43:30;4.40;99.90
15450;DHT22;7826;49.784;9.934;2022-11-12T06:46:01;4.40;99.90
15450;DHT22;7826;49.784;9.934;2022-11-12T06:48:28;4.40;99.90
15450;DHT22;7826;49.784;9.934;2022-11-12T06:50:57;4.40;99.90
15450;DHT22;7826;49.784;9.934;2022-11-12T06:53:24;4.40;99.90
15450;DHT22;7826;49.784;9.934;2022-11-12T06:55:51;4.40;99.90
15450;DHT22;7826;49.784;9.934;2022-11-12T06:58:17;4.50;99.90
15450;DHT22;7826;49.784;9.934;2022-11-12T07:00:43;4.50;99.90
15450;DHT22;7826;49.784;9.934;2022-11-12T07:03:12;4.50;99.90
15450;DHT22;7826;49.784;9.934;2022-11-12T07:05:39;4.60;99.90
15450;DHT22;7826;49.784;9.934;2022-11-12T07:08:06;4.60;99.90
15450;DHT22;7826;49.784;9.934;2022-11-12T07:10:32;4.60;99.90
15450;DHT22;7826;49.784;9.934;2022-11-12T07:12:58;4.70;99.90
15450;DHT22;7826;49.784;9.934;2022-11-12T07:15:25;4.60;99.90
15450;DHT22;7826;49.784;9.934;2022-11-12T07:17:51;4.70;99.90
15450;DHT22;7826;49.784;9.934;2022-11-12T07:20:17;4.60;99.90
15450;DHT22;7826;49.784;9.934;2022-11-12T07:22:44;4.60;99.90
15450;DHT22;7826;49.784;9.934;2022-11-12T07:25:10;4.70;99.90
15450;DHT22;7826;49.784;9.934;2022-11-12T07:27:36;4.60;99.90
15450;DHT22;7826;49.784;9.934;2022-11-12T07:30:03;4.70;99.90
15450;DHT22;7826;49.784;9.934;2022-11-12T07:32:29;4.70;99.90
15450;DHT22;7826;49.784;9.934;2022-11-12T07:34:56;4.70;99.90
15450;DHT22;7826;49.784;9.934;2022-11-12T07:37:22;4.70;99.90
15450;DHT22;7826;49.784;9.934;2022-11-12T07:39:48;4.80;99.90
15450;DHT22;7826;49.784;9.934;2022-11-12T07:42:15;4.80;99.90
15450;DHT22;7826;49.784;9.934;2022-11-12T07:44:41;4.80;99.90
15450;DHT22;7826;49.784;9.934;2022-11-12T07:47:08;4.70;99.90
15450;DHT22;7826;49.784;9.934;2022-11-12T07:49:34;4.70;83.20
15450;DHT22;7826;49.784;9.934;2022-11-12T07:52:00;4.70;99.90
15450;DHT22;7826;49.784;9.934;2022-11-12T07:54:26;4.80;99.90
15450;DHT22;7826;49.784;9.934;2022-11-12T07:56:53;4.70;95.20
15450;DHT22;7826;49.784;9.934;2022-11-12T07:59:19;4.80;99.90
15450;DHT22;7826;49.784;9.934;2022-11-12T08:01:45;4.90;99.90
15450;DHT22;7826;49.784;9.934;2022-11-12T08:04:12;4.90;99.90
15450;DHT22;7826;49.784;9.934;2022-11-12T08:06:39;5.00;99.90
15450;DHT22;7826;49.784;9.934;2022-11-12T08:09:07;5.00;58.00
15450;DHT22;7826;49.784;9.934;2022-11-12T08:11:33;5.10;59.00
15450;DHT22;7826;49.784;9.934;2022-11-12T08:14:01;5.10;53.30
15450;DHT22;7826;49.784;9.934;2022-11-12T08:16:27;5.10;1.00
15450;DHT22;7826;49.784;9.934;2022-11-12T08:18:54;5.20;3.40
15450;DHT22;7826;49.784;9.934;2022-11-12T08:21:20;5.30;1.00
15450;DHT22;7826;49.784;9.934;2022-11-12T08:23:46;5.30;1.00
15450;DHT22;7826;49.784;9.934;2022-11-12T08:26:15;5.40;1.00
15450;DHT22;7826;49.784;9.934;2022-11-12T08:28:41;5.50;1.00
15450;DHT22;7826;49.784;9.934;2022-11-12T08:31:20;5.40;1.00
15450;DHT22;7826;49.784;9.934;2022-11-12T08:33:47;5.40;1.00
15450;DHT22;7826;49.784;9.934;2022-11-12T08:36:15;5.50;1.00
15450;DHT22;7826;49.784;9.934;2022-11-12T08:38:42;5.60;1.00
15450;DHT22;7826;49.784;9.934;2022-11-12T08:41:11;5.60;1.00
15450;DHT22;7826;49.784;9.934;2022-11-12T08:43:39;5.60;1.00
15450;DHT22;7826;49.784;9.934;2022-11-12T08:46:05;5.70;1.00
15450;DHT22;7826;49.784;9.934;2022-11-12T08:48:32;5.80;1.00
15450;DHT22;7826;49.784;9.934;2022-11-12T08:51:03;5.80;99.90
15450;DHT22;7826;49.784;9.934;2022-11-12T08:53:30;5.70;99.90
15450;DHT22;7826;49.784;9.934;2022-11-12T08:55:57;5.60;99.90
15450;DHT22;7826;49.784;9.934;2022-11-12T08:58:24;5.60;99.90
15450;DHT22;7826;49.784;9.934;2022-11-12T09:00:51;5.60;99.90
15450;DHT22;7826;49.784;9.934;2022-11-12T09:03:19;5.70;99.90
15450;DHT22;7826;49.784;9.934;2022-11-12T09:05:49;5.80;99.90
15450;DHT22;7826;49.784;9.934;2022-11-12T09:08:20;5.80;99.90
15450;DHT22;7826;49.784;9.934;2022-11-12T09:10:48;5.80;99.90
15450;DHT22;7826;49.784;9.934;2022-11-12T09:13:15;5.70;99.90
15450;DHT22;7826;49.784;9.934;2022-11-12T09:15:44;5.70;99.90
15450;DHT22;7826;49.784;9.934;2022-11-12T09:18:13;5.80;99.90
15450;DHT22;7826;49.784;9.934;2022-11-12T09:20:40;5.90;99.90
15450;DHT22;7826;49.784;9.934;2022-11-12T09:23:09;5.90;95.20
15450;DHT22;7826;49.784;9.934;2022-11-12T09:25:36;5.90;92.60
15450;DHT22;7826;49.784;9.934;2022-11-12T09:28:14;6.00;39.50
15450;DHT22;7826;49.784;9.934;2022-11-12T09:30:46;6.00;1.30
15450;DHT22;7826;49.784;9.934;2022-11-12T09:33:14;6.00;1.00
15450;DHT22;7826;49.784;9.934;2022-11-12T09:35:42;6.10;9.90
15450;DHT22;7826;49.784;9.934;2022-11-12T09:38:09;6.10;1.00
15450;DHT22;7826;49.784;9.934;2022-11-12T09:40:40;6.10;1.00
15450;DHT22;7826;49.784;9.934;2022-11-12T09:45:45;6.40;1.00
15450;DHT22;7826;49.784;9.934;2022-11-12T09:48:17;6.50;99.90
15450;DHT22;7826;49.784;9.934;2022-11-12T09:50:58;6.50;1.00
15450;DHT22;7826;49.784;9.934;2022-11-12T09:56:18;6.60;1.00
15450;DHT22;7826;49.784;9.934;2022-11-12T09:58:47;6.70;1.00
15450;DHT22;7826;49.784;9.934;2022-11-12T10:06:11;6.80;1.00
15450;DHT22;7826;49.784;9.934;2022-11-12T10:08:49;6.70;1.00
15450;DHT22;7826;49.784;9.934;2022-11-12T10:14:51;6.90;88.10
15450;DHT22;7826;49.784;9.934;2022-11-12T10:19:57;7.10;99.90
15450;DHT22;7826;49.784;9.934;2022-11-12T10:25:14;7.10;1.00
15450;DHT22;7826;49.784;9.934;2022-11-12T10:27:42;7.20;1.00
15450;DHT22;7826;49.784;9.934;2022-11-12T10:30:17;7.20;1.00
15450;DHT22;7826;49.784;9.934;2022-11-12T10:32:45;7.10;1.00
15450;DHT22;7826;49.784;9.934;2022-11-12T10:35:16;7.10;1.00
15450;DHT22;7826;49.784;9.934;2022-11-12T10:45:47;7.20;99.90
15450;DHT22;7826;49.784;9.934;2022-11-12T10:48:28;7.20;99.90
15450;DHT22;7826;49.784;9.934;2022-11-12T10:50:55;7.30;99.90
15450;DHT22;7826;49.784;9.934;2022-11-12T10:53:36;7.20;99.90
15450;DHT22;7826;49.784;9.934;2022-11-12T10:56:21;7.20;99.90
15450;DHT22;7826;49.784;9.934;2022-11-12T11:01:41;7.20;1.00
15450;DHT22;7826;49.784;9.934;2022-11-12T11:04:37;7.20;99.90
15450;DHT22;7826;49.784;9.934;2022-11-12T11:07:19;7.40;1.00
15450;DHT22;7826;49.784;9.934;2022-11-12T11:09:56;7.50;61.20
15450;DHT22;7826;49.784;9.934;2022-11-12T11:12:26;7.60;99.90
15450;DHT22;7826;49.784;9.934;2022-11-12T11:15:06;7.90;99.90
15450;DHT22;7826;49.784;9.934;2022-11-12T11:17:33;7.90;99.90
15450;DHT22;7826;49.784;9.934;2022-11-12T11:20:00;8.00;99.90
15450;DHT22;7826;49.784;9.934;2022-11-12T11:23:02;7.80;99.90
15450;DHT22;7826;49.784;9.934;2022-11-12T11:25:32;7.90;1.00
15450;DHT22;7826;49.784;9.934;2022-11-12T11:36:20;7.80;1.00
15450;DHT22;7826;49.784;9.934;2022-11-12T11:39:00;7.80;99.90
15450;DHT22;7826;49.784;9.934;2022-11-12T11:55:53;8.10;99.90
15450;DHT22;7826;49.784;9.934;2022-11-12T12:12:12;8.50;99.90
15450;DHT22;7826;49.784;9.934;2022-11-12T12:23:09;8.60;1.00
15450;DHT22;7826;49.784;9.934;2022-11-12T12:25:39;8.60;1.00
15450;DHT22;7826;49.784;9.934;2022-11-12T12:30:35;8.50;1.00
15450;DHT22;7826;49.784;9.934;2022-11-12T12:35:55;8.60;41.50
15450;DHT22;7826;49.784;9.934;2022-11-12T12:38:48;8.60;99.90
15450;DHT22;7826;49.784;9.934;2022-11-12T12:41:45;8.70;99.90
15450;DHT22;7826;49.784;9.934;2022-11-12T12:44:14;8.80;1.00
15450;DHT22;7826;49.784;9.934;2022-11-12T12:46:52;8.90;99.90
15450;DHT22;7826;49.784;9.934;2022-11-12T12:49:29;8.90;1.00
15450;DHT22;7826;49.784;9.934;2022-11-12T12:51:57;8.80;1.00
15450;DHT22;7826;49.784;9.934;2022-11-12T12:57:38;8.70;1.00
15450;DHT22;7826;49.784;9.934;2022-11-12T13:02:59;8.50;99.90
15450;DHT22;7826;49.784;9.934;2022-11-12T13:05:31;8.70;1.00
15450;DHT22;7826;49.784;9.934;2022-11-12T13:08:08;8.70;1.00
15450;DHT22;7826;49.784;9.934;2022-11-12T13:15:44;8.80;1.00
15450;DHT22;7826;49.784;9.934;2022-11-12T13:21:16;8.80;1.00
15450;DHT22;7826;49.784;9.934;2022-11-12T13:23:54;8.80;1.00
15450;DHT22;7826;49.784;9.934;2022-11-12T13:26:49;8.80;1.00
15450;DHT22;7826;49.784;9.934;2022-11-12T13:31:43;8.80;1.00
15450;DHT22;7826;49.784;9.934;2022-11-12T13:34:31;8.70;1.00
15450;DHT22;7826;49.784;9.934;2022-11-12T13:37:03;8.70;1.00
15450;DHT22;7826;49.784;9.934;2022-11-12T13:39:34;8.60;99.90
15450;DHT22;7826;49.784;9.934;2022-11-12T13:42:16;8.60;99.90
15450;DHT22;7826;49.784;9.934;2022-11-12T13:45:01;8.60;99.90
15450;DHT22;7826;49.784;9.934;2022-11-12T13:47:31;8.60;1.00
15450;DHT22;7826;49.784;9.934;2022-11-12T13:49:59;8.60;1.00
15450;DHT22;7826;49.784;9.934;2022-11-12T13:52:27;8.60;1.00
15450;DHT22;7826;49.784;9.934;2022-11-12T13:55:05;8.60;1.00
15450;DHT22;7826;49.784;9.934;2022-11-12T13:57:32;8.60;1.00
15450;DHT22;7826;49.784;9.934;2022-11-12T14:02:52;8.60;1.00
15450;DHT22;7826;49.784;9.934;2022-11-12T14:05:22;8.60;1.00
15450;DHT22;7826;49.784;9.934;2022-11-12T14:08:20;8.60;1.00
15450;DHT22;7826;49.784;9.934;2022-11-12T14:11:17;8.60;71.30
15450;DHT22;7826;49.784;9.934;2022-11-12T14:22:11;8.70;99.90
15450;DHT22;7826;49.784;9.934;2022-11-12T14:24:39;8.70;99.90
15450;DHT22;7826;49.784;9.934;2022-11-12T14:27:21;8.70;99.90
15450;DHT22;7826;49.784;9.934;2022-11-12T14:29:48;8.80;99.90
15450;DHT22;7826;49.784;9.934;2022-11-12T14:32:15;8.70;99.90
15450;DHT22;7826;49.784;9.934;2022-11-12T14:34:41;8.70;99.90
15450;DHT22;7826;49.784;9.934;2022-11-12T14:37:37;8.70;99.90
15450;DHT22;7826;49.784;9.934;2022-11-12T14:40:04;8.70;99.90
15450;DHT22;7826;49.784;9.934;2022-11-12T14:42:39;8.70;99.90
15450;DHT22;7826;49.784;9.934;2022-11-12T14:45:14;8.60;99.90
15450;DHT22;7826;49.784;9.934;2022-11-12T14:47:41;8.60;99.90
15450;DHT22;7826;49.784;9.934;2022-11-12T14:52:45;8.50;1.00
15450;DHT22;7826;49.784;9.934;2022-11-12T14:55:17;8.50;1.00
15450;DHT22;7826;49.784;9.934;2022-11-12T14:57:44;8.50;1.00
15450;DHT22;7826;49.784;9.934;2022-11-12T15:00:35;8.50;1.00
15450;DHT22;7826;49.784;9.934;2022-11-12T15:03:03;8.40;1.00
15450;DHT22;7826;49.784;9.934;2022-11-12T15:05:30;8.40;1.00
15450;DHT22;7826;49.784;9.934;2022-11-12T15:13:11;8.20;64.20
15450;DHT22;7826;49.784;9.934;2022-11-12T15:18:17;8.10;99.90
15450;DHT22;7826;49.784;9.934;2022-11-12T15:20:45;8.10;99.90
15450;DHT22;7826;49.784;9.934;2022-11-12T15:23:16;8.10;99.90
15450;DHT22;7826;49.784;9.934;2022-11-12T15:25:44;8.00;1.00
15450;DHT22;7826;49.784;9.934;2022-11-12T15:28:21;8.00;1.00
15450;DHT22;7826;49.784;9.934;2022-11-12T15:31:13;7.90;1.00
15450;DHT22;7826;49.784;9.934;2022-11-12T15:33:41;7.90;1.00
15450;DHT22;7826;49.784;9.934;2022-11-12T15:36:15;7.80;1.00
15450;DHT22;7826;49.784;9.934;2022-11-12T15:38:48;7.70;1.00
15450;DHT22;7826;49.784;9.934;2022-11-12T15:41:28;7.70;63.10
15450;DHT22;7826;49.784;9.934;2022-11-12T15:43:55;7.70;99.90
15450;DHT22;7826;49.784;9.934;2022-11-12T15:46:22;7.60;99.90
15450;DHT22;7826;49.784;9.934;2022-11-12T15:48:49;7.60;99.90
15450;DHT22;7826;49.784;9.934;2022-11-12T15:51:16;7.60;99.90
15450;DHT22;7826;49.784;9.934;2022-11-12T15:53:42;7.50;99.90
15450;DHT22;7826;49.784;9.934;2022-11-12T15:56:13;7.50;99.90
15450;DHT22;7826;49.784;9.934;2022-11-12T15:58:42;7.40;99.90
15450;DHT22;7826;49.784;9.934;2022-11-12T16:01:10;7.40;1.00
15450;DHT22;7826;49.784;9.934;2022-11-12T16:03:37;7.40;1.00
15450;DHT22;7826;49.784;9.934;2022-11-12T16:06:04;7.30;1.00
15450;DHT22;7826;49.784;9.934;2022-11-12T16:08:30;7.30;1.00
15450;DHT22;7826;49.784;9.934;2022-11-12T16:10:57;7.20;1.00
15450;DHT22;7826;49.784;9.934;2022-11-12T16:13:27;7.20;1.00
15450;DHT22;7826;49.784;9.934;2022-11-12T16:15:54;7.20;1.00
15450;DHT22;7826;49.784;9.934;2022-11-12T16:18:20;7.10;1.00
15450;DHT22;7826;49.784;9.934;2022-11-12T16:20:47;7.10;1.00
15450;DHT22;7826;49.784;9.934;2022-11-12T16:23:14;7.10;1.00
15450;DHT22;7826;49.784;9.934;2022-11-12T16:25:42;7.10;1.00
15450;DHT22;7826;49.784;9.934;2022-11-12T16:28:15;7.10;1.00
15450;DHT22;7826;49.784;9.934;2022-11-12T16:30:42;7.00;8.40
15450;DHT22;7826;49.784;9.934;2022-11-12T16:33:10;7.00;31.80
15450;DHT22;7826;49.784;9.934;2022-11-12T16:35:38;7.00;36.00
15450;DHT22;7826;49.784;9.934;2022-11-12T16:38:15;7.00;45.00
15450;DHT22;7826;49.784;9.934;2022-11-12T16:40:42;7.10;58.00
15450;DHT22;7826;49.784;9.934;2022-11-12T16:43:09;7.00;93.60
15450;DHT22;7826;49.784;9.934;2022-11-12T16:45:40;7.00;99.90
15450;DHT22;7826;49.784;9.934;2022-11-12T16:48:25;7.00;99.90
15450;DHT22;7826;49.784;9.934;2022-11-12T16:50:52;7.00;99.90
15450;DHT22;7826;49.784;9.934;2022-11-12T16:53:18;7.10;99.90
15450;DHT22;7826;49.784;9.934;2022-11-12T16:55:44;7.10;99.90
15450;DHT22;7826;49.784;9.934;2022-11-12T16:58:14;7.10;99.90
15450;DHT22;7826;49.784;9.934;2022-11-12T17:00:43;7.10;99.90
15450;DHT22;7826;49.784;9.934;2022-11-12T17:03:11;7.10;99.90
15450;DHT22;7826;49.784;9.934;2022-11-12T17:05:38;7.20;99.90
15450;DHT22;7826;49.784;9.934;2022-11-12T17:08:04;7.20;99.90
15450;DHT22;7826;49.784;9.934;2022-11-12T17:10:30;7.10;99.90
15450;DHT22;7826;49.784;9.934;2022-11-12T17:12:57;7.20;99.90
15450;DHT22;7826;49.784;9.934;2022-11-12T17:15:23;7.20;99.90
15450;DHT22;7826;49.784;9.934;2022-11-12T17:17:52;7.20;99.90
15450;DHT22;7826;49.784;9.934;2022-11-12T17:20:18;7.20;99.90
15450;DHT22;7826;49.784;9.934;2022-11-12T17:22:44;7.10;99.90
15450;DHT22;7826;49.784;9.934;2022-11-12T17:25:11;7.10;99.90
15450;DHT22;7826;49.784;9.934;2022-11-12T17:27:37;7.20;99.90
15450;DHT22;7826;49.784;9.934;2022-11-12T17:30:04;7.20;99.90
15450;DHT22;7826;49.784;9.934;2022-11-12T17:32:31;7.20;99.90
15450;DHT22;7826;49.784;9.934;2022-11-12T17:34:57;7.20;99.90
15450;DHT22;7826;49.784;9.934;2022-11-12T17:37:23;7.20;99.90
15450;DHT22;7826;49.784;9.934;2022-11-12T17:39:50;7.10;95.00
15450;DHT22;7826;49.784;9.934;2022-11-12T17:42:16;7.00;13.10
15450;DHT22;7826;49.784;9.934;2022-11-12T17:44:42;7.00;25.10
15450;DHT22;7826;49.784;9.934;2022-11-12T17:47:11;7.00;26.70
15450;DHT22;7826;49.784;9.934;2022-11-12T17:49:37;6.90;1.00
15450;DHT22;7826;49.784;9.934;2022-11-12T17:52:03;6.90;1.00
15450;DHT22;7826;49.784;9.934;2022-11-12T17:54:29;6.90;1.00
15450;DHT22;7826;49.784;9.934;2022-11-12T17:56:56;6.90;1.00
15450;DHT22;7826;49.784;9.934;2022-11-12T17:59:22;6.90;1.00
15450;DHT22;7826;49.784;9.934;2022-11-12T18:01:48;6.90;1.00
15450;DHT22;7826;49.784;9.934;2022-11-12T18:04:15;6.90;1.00
15450;DHT22;7826;49.784;9.934;2022-11-12T18:06:41;6.90;1.00
15450;DHT22;7826;49.784;9.934;2022-11-12T18:09:12;6.90;1.00
15450;DHT22;7826;49.784;9.934;2022-11-12T18:11:48;6.90;1.00
15450;DHT22;7826;49.784;9.934;2022-11-12T18:14:14;6.80;1.00
15450;DHT22;7826;49.784;9.934;2022-11-12T18:16:41;6.80;1.00
15450;DHT22;7826;49.784;9.934;2022-11-12T18:19:09;6.90;1.00
15450;DHT22;7826;49.784;9.934;2022-11-12T18:21:39;6.90;1.00
15450;DHT22;7826;49.784;9.934;2022-11-12T18:24:13;6.90;1.00